createdAt,value
2023-02-05T14:43:35.506Z,56.40
2023-02-05T14:46:41.442Z,59.50
2023-02-05T14:49:27.667Z,65.10
2023-02-05T14:52:03.002Z,71.40
2023-02-05T14:54:52.207Z,75.70
2023-02-05T14:57:24.503Z,79.60
2023-02-05T15:00:04.398Z,82.00
2023-02-05T15:03:00.083Z,83.20
2023-02-05T15:05:40.686Z,84.90
2023-02-05T15:08:37.666Z,85.60
2023-02-05T15:11:24.953Z,86.40
2023-02-05T15:14:32.469Z,87.10
2023-02-05T15:17:09.777Z,88.10
2023-02-05T15:19:44.400Z,88.20
2023-02-05T15:22:40.867Z,88.70
2023-02-05T15:25:29.195Z,89.00
2023-02-05T15:28:07.166Z,89.30
2023-02-05T15:30:47.820Z,89.70
2023-02-05T15:33:29.375Z,89.90
2023-02-05T15:35:56.545Z,90.00
2023-02-05T15:38:43.854Z,90.20
2023-02-05T15:41:15.010Z,90.20
2023-02-05T15:43:56.506Z,90.30
2023-02-05T15:46:23.184Z,90.50
2023-02-05T15:48:50.627Z,90.70
2023-02-05T15:51:47.187Z,90.90
2023-02-05T15:54:20.055Z,90.80
2023-02-05T15:56:50.834Z,90.90
2023-02-05T15:59:25.391Z,90.80
2023-02-05T16:02:20.301Z,91.00
2023-02-05T16:04:55.423Z,90.90
2023-02-05T16:07:28.242Z,90.90
2023-02-05T16:10:00.473Z,91.00
2023-02-05T16:12:27.605Z,90.80
2023-02-05T16:15:13.123Z,90.90
2023-02-05T16:17:47.186Z,90.90
2023-02-05T16:20:51.608Z,91.00
2023-02-05T16:23:39.708Z,90.80
2023-02-05T16:26:23.547Z,90.60
2023-02-05T16:29:00.214Z,91.00
2023-02-05T16:31:28.945Z,91.30
2023-02-05T16:34:02.437Z,91.30
2023-02-05T16:36:34.848Z,91.30
2023-02-05T16:39:19.091Z,91.30
2023-02-05T16:41:46.148Z,91.50
2023-02-05T16:44:32.972Z,91.60
2023-02-05T16:47:21.207Z,91.40
2023-02-05T16:49:49.284Z,91.50
2023-02-05T16:52:30.843Z,91.60
2023-02-05T16:55:06.105Z,91.60
2023-02-05T16:57:37.056Z,91.60
2023-02-05T17:00:23.610Z,91.60
2023-02-05T17:02:55.329Z,91.60
2023-02-05T17:05:36.819Z,91.80
2023-02-05T17:08:08.426Z,91.80
2023-02-05T17:10:56.588Z,91.80
2023-02-05T17:13:30.342Z,91.80
2023-02-05T17:15:56.867Z,91.90
2023-02-05T17:18:30.246Z,91.90
2023-02-05T17:21:29.574Z,92.00
2023-02-05T17:23:58.750Z,92.00
2023-02-05T17:26:28.152Z,92.10
2023-02-05T17:29:01.218Z,92.00
2023-02-05T17:31:29.301Z,92.00
2023-02-05T17:33:57.854Z,92.10
2023-02-05T17:36:25.478Z,92.00
2023-02-05T17:38:52.893Z,91.70
2023-02-05T17:41:41.699Z,91.70
2023-02-05T17:44:13.148Z,91.60
2023-02-05T17:46:39.995Z,91.60
2023-02-05T17:49:06.531Z,91.60
2023-02-05T17:51:33.170Z,91.60
2023-02-05T17:53:59.915Z,91.70
2023-02-05T17:56:27.425Z,91.70
2023-02-05T17:58:55.668Z,91.70
2023-02-05T18:01:22.428Z,91.40
2023-02-05T18:03:49.096Z,91.40
2023-02-05T18:06:17.909Z,91.60
2023-02-05T18:08:45.466Z,91.50
2023-02-05T18:11:11.970Z,91.50
2023-02-05T18:13:38.472Z,91.40
2023-02-05T18:16:05.425Z,91.40
2023-02-05T18:18:34.474Z,91.40
2023-02-05T18:21:01.019Z,91.20
2023-02-05T18:23:29.450Z,91.30
2023-02-05T18:25:57.360Z,91.10
2023-02-05T18:28:24.325Z,91.00
2023-02-05T18:31:03.278Z,91.00
2023-02-05T18:33:30.186Z,91.20
2023-02-05T18:36:15.326Z,91.30
2023-02-05T18:38:45.345Z,91.40
2023-02-05T18:41:13.177Z,91.60
2023-02-05T18:43:40.271Z,91.60
2023-02-05T18:46:14.514Z,91.40
2023-02-05T18:48:41.790Z,91.70
2023-02-05T18:51:11.066Z,91.80
2023-02-05T18:53:39.183Z,91.80
2023-02-05T18:56:16.698Z,91.90
2023-02-05T18:58:44.618Z,91.90
2023-02-05T19:01:16.422Z,91.90
2023-02-05T19:03:43.697Z,91.80
2023-02-05T19:06:12.134Z,91.70
2023-02-05T19:08:39.010Z,91.60
2023-02-05T19:11:10.575Z,91.60
2023-02-05T19:13:37.490Z,91.60
2023-02-05T19:16:06.590Z,91.60
2023-02-05T19:18:33.375Z,91.30
2023-02-05T19:21:04.840Z,91.40
2023-02-05T19:23:31.355Z,91.50
2023-02-05T19:25:57.886Z,91.50
2023-02-05T19:28:24.398Z,91.30
2023-02-05T19:30:50.975Z,91.30
2023-02-05T19:33:17.574Z,91.40
2023-02-05T19:35:44.144Z,91.30
2023-02-05T19:38:10.674Z,91.30
2023-02-05T19:40:37.436Z,91.50
2023-02-05T19:43:04.232Z,91.50
2023-02-05T19:45:30.852Z,91.50
2023-02-05T19:47:57.391Z,91.60
2023-02-05T19:50:25.705Z,91.60
2023-02-05T19:52:53.102Z,91.60
2023-02-05T19:55:19.646Z,91.50
2023-02-05T19:57:46.217Z,92.00
2023-02-05T20:00:13.201Z,91.90
2023-02-05T20:02:39.731Z,91.80
2023-02-05T20:05:06.501Z,91.90
2023-02-05T20:07:37.995Z,91.70
2023-02-05T20:10:05.997Z,91.70
2023-02-05T20:12:32.551Z,91.60
2023-02-05T20:14:59.167Z,91.60
2023-02-05T20:17:25.718Z,91.60
2023-02-05T20:19:59.662Z,91.70
2023-02-05T20:22:32.331Z,91.60
2023-02-05T20:24:58.930Z,91.90
2023-02-05T20:27:25.519Z,91.80
2023-02-05T20:30:10.658Z,91.90
2023-02-05T20:32:37.183Z,91.90
2023-02-05T20:35:03.806Z,91.90
2023-02-05T20:37:30.383Z,91.90
2023-02-05T20:39:57.749Z,91.90
2023-02-05T20:42:24.314Z,92.00
2023-02-05T20:44:50.880Z,92.00
2023-02-05T20:47:17.403Z,92.00
2023-02-05T20:49:44.045Z,92.00
2023-02-05T20:52:11.222Z,91.90
2023-02-05T20:54:37.831Z,92.00
2023-02-05T20:57:04.456Z,92.00
2023-02-05T20:59:36.408Z,91.90
2023-02-05T21:02:03.824Z,92.00
2023-02-05T21:04:30.780Z,92.00
2023-02-05T21:06:58.233Z,92.00
2023-02-05T21:09:24.866Z,92.00
2023-02-05T21:11:55.168Z,92.00
2023-02-05T21:14:23.065Z,92.20
2023-02-05T21:16:49.643Z,92.30
2023-02-05T21:19:16.209Z,92.40
2023-02-05T21:21:42.766Z,92.40
2023-02-05T21:24:13.082Z,92.40
2023-02-05T21:26:42.215Z,92.50
2023-02-05T21:29:17.825Z,92.50
2023-02-05T21:31:46.989Z,92.60
2023-02-05T21:34:21.483Z,92.40
2023-02-05T21:36:48.350Z,92.30
2023-02-05T21:39:20.151Z,92.30
2023-02-05T21:41:47.406Z,92.30
2023-02-05T21:44:14.272Z,92.30
2023-02-05T21:46:41.074Z,92.30
2023-02-05T21:49:07.704Z,92.20
2023-02-05T21:51:35.364Z,92.30
2023-02-05T21:54:04.269Z,92.30
2023-02-05T21:56:34.462Z,92.30
2023-02-05T21:59:01.123Z,92.30
2023-02-05T22:01:29.918Z,92.50
2023-02-05T22:04:01.675Z,92.40
2023-02-05T22:06:31.544Z,92.40
2023-02-05T22:08:59.097Z,92.40
2023-02-05T22:11:26.463Z,92.30
2023-02-05T22:13:55.161Z,92.30
2023-02-05T22:16:24.902Z,92.40
2023-02-05T22:18:52.606Z,92.40
2023-02-05T22:21:22.169Z,92.30
2023-02-05T22:23:51.208Z,92.20
2023-02-05T22:26:20.386Z,92.20
2023-02-05T22:28:47.818Z,92.10
2023-02-05T22:31:17.145Z,92.00
2023-02-05T22:33:45.978Z,92.10
2023-02-05T22:36:17.859Z,92.10
2023-02-05T22:38:44.511Z,92.10
2023-02-05T22:41:20.204Z,92.20
2023-02-05T22:43:46.988Z,92.20
2023-02-05T22:46:16.405Z,92.20
2023-02-05T22:48:45.223Z,92.20
2023-02-05T22:51:14.317Z,92.20
2023-02-05T22:53:40.991Z,92.30
2023-02-05T22:56:12.601Z,92.30
2023-02-05T22:58:41.372Z,92.30
2023-02-05T23:01:13.893Z,92.20
2023-02-05T23:03:41.137Z,92.20
2023-02-05T23:06:12.132Z,92.10
2023-02-05T23:08:39.004Z,92.20
2023-02-05T23:11:10.486Z,92.10
2023-02-05T23:13:37.031Z,92.00
2023-02-05T23:16:12.456Z,92.20
2023-02-05T23:18:40.251Z,92.20
2023-02-05T23:21:12.078Z,92.20
2023-02-05T23:23:38.627Z,92.20
2023-02-05T23:26:07.328Z,92.20
2023-02-05T23:28:33.886Z,92.10
2023-02-05T23:31:00.504Z,92.10
2023-02-05T23:33:27.449Z,92.10
2023-02-05T23:35:55.048Z,92.00
2023-02-05T23:38:21.568Z,92.00
2023-02-05T23:40:48.063Z,92.20
2023-02-05T23:43:14.651Z,92.20
2023-02-05T23:45:42.541Z,92.30
2023-02-05T23:48:09.440Z,92.20
2023-02-05T23:50:36.379Z,92.20
2023-02-05T23:53:04.122Z,92.40
2023-02-05T23:55:31.251Z,92.30
2023-02-05T23:57:57.925Z,92.40
